Kezdőlap
METAR-TAF:

METAR-TAF

Repülőterek :

St. Paul Downtown Airport (Holman Field)

Saint Paul, Minnesota, Amerikai Egyesült Államok

földrajzi szélesség: 44-55-49N, földrajzi hosszúság: 093-02-53W, magasság: 214 m

Jelenlegi meteorológiai megfigyelések

A jelentés 30 perccel ezelõtt készült, 08:10 UTC
Kelet-délkeleti szél 9 kt
Hőmérséklet 21°C
Páratartalom 78%
Légköri nyomás 1008 hPa
Látótávolság: 16.1 km
Szakadozott felhőzet 9500 lábon
Szakadozott felhőzet 11000 lábon
zivatar, enyhe esõ

METAR: KSTP 100810Z AUTO 12009KT 10SM -TSRA BKN095 BKN110 21/17 A2978 RMK AO2 LTG DSNT ALQDS TSB04 P0001 T02110172

Idő: 03:40 (08:40 UTC)


TAF: hiányzik

Meteorológiai megfigyelések és előrejelzések több, mint 4000 repülőtéren (METAR és TAF jelentéseket).

A térképen piros és sárga pontok jelzik az elérhető meteorológiai állomásokat.

Mozgassa az egeret a pont fölött, hogy megjelenjen az állomás neve.

Azután kattintson az időjárási megfigyelések és előrejelzések megtekintéséhez.

A térkép megváltoztatása: kattintson a fekete keresztel jelölt zöld gombra ráközelítéshez, a vonallal jelölt zöld gombra távolításhoz, vagy a zöld nyilakra a szomszédos térképek eléréséhez.


METAR-TAF: